createdAt,value
2022-09-05T00:00:05.565Z,70.09
2022-09-05T00:01:05.548Z,70.70
2022-09-05T00:02:05.522Z,70.59
2022-09-05T00:03:05.671Z,70.79
2022-09-05T00:04:14.945Z,70.90
2022-09-05T00:05:05.506Z,71.30
2022-09-05T00:06:05.500Z,70.50
2022-09-05T00:07:05.487Z,70.70
2022-09-05T00:08:05.465Z,70.70
2022-09-05T00:09:05.469Z,70.90
2022-09-05T00:10:05.801Z,71.50
2022-09-05T00:11:41.628Z,71.70
2022-09-05T00:12:05.430Z,71.60
2022-09-05T00:13:07.571Z,71.40
2022-09-05T00:14:05.395Z,70.50
2022-09-05T00:15:14.757Z,71.10
2022-09-05T00:16:05.494Z,70.79
2022-09-05T00:17:05.357Z,69.89
2022-09-05T00:23:33.293Z,70.09
2022-09-05T00:25:39.482Z,70.90
2022-09-05T00:26:38.795Z,71.00
2022-09-05T00:27:38.820Z,70.59
2022-09-05T00:28:38.761Z,71.30
2022-09-05T00:31:08.159Z,70.39
2022-09-05T00:31:57.547Z,70.39
2022-09-05T00:32:02.589Z,71.30
2022-09-05T00:33:02.506Z,71.30
2022-09-05T00:34:02.538Z,71.80
2022-09-05T00:35:02.490Z,70.29
2022-09-05T00:36:02.473Z,70.29
2022-09-05T00:37:02.506Z,70.59
2022-09-05T00:38:02.456Z,70.79
2022-09-05T00:39:02.441Z,71.60
2022-09-05T00:40:17.238Z,70.59
2022-09-05T00:41:02.422Z,70.19
2022-09-05T00:42:02.412Z,69.69
2022-09-05T00:43:02.429Z,69.76
2022-09-05T00:44:02.396Z,70.36
2022-09-05T00:45:02.372Z,69.65
2022-09-05T00:46:02.412Z,69.25
2022-09-05T00:47:02.352Z,69.45
2022-09-05T00:48:02.381Z,69.76
2022-09-05T00:49:02.329Z,69.56
2022-09-05T00:50:02.327Z,69.96
2022-09-05T00:51:02.315Z,70.16
2022-09-05T00:52:02.307Z,69.76
2022-09-05T00:53:07.633Z,69.25
2022-09-05T00:54:02.292Z,69.35
2022-09-05T00:55:02.276Z,69.56
2022-09-05T00:56:02.260Z,69.76
2022-09-05T00:57:02.244Z,70.56
2022-09-05T00:58:02.256Z,70.90
2022-09-05T00:59:02.244Z,71.40
2022-09-05T01:00:02.215Z,70.70
2022-09-05T01:01:02.190Z,71.50
2022-09-05T01:02:02.328Z,71.20
2022-09-05T01:03:02.355Z,70.09
2022-09-05T01:04:05.720Z,70.90
2022-09-05T01:05:02.165Z,70.70
2022-09-05T01:06:02.179Z,71.50
2022-09-05T01:07:02.147Z,71.40
2022-09-05T01:08:02.140Z,70.39
2022-09-05T01:09:07.335Z,71.00
2022-09-05T01:10:02.116Z,71.00
2022-09-05T01:11:02.092Z,71.30
2022-09-05T01:12:02.082Z,71.30
2022-09-05T01:13:02.116Z,71.50
2022-09-05T01:14:02.076Z,71.00
2022-09-05T01:15:02.050Z,71.30
2022-09-05T01:16:02.197Z,71.70
2022-09-05T01:17:02.045Z,71.73
2022-09-05T01:18:02.033Z,71.53
2022-09-05T01:19:02.023Z,71.33
2022-09-05T01:20:04.682Z,70.42
2022-09-05T01:21:01.991Z,70.73
2022-09-05T01:22:01.972Z,71.40
2022-09-05T01:23:06.491Z,71.00
2022-09-05T01:24:01.956Z,71.20
2022-09-05T01:25:01.949Z,71.44
2022-09-05T01:26:01.924Z,71.53
2022-09-05T01:27:01.917Z,71.84
2022-09-05T01:29:13.887Z,72.34
2022-09-05T01:29:23.458Z,72.04
2022-09-05T01:30:01.880Z,72.64
2022-09-05T01:31:01.943Z,71.64
2022-09-05T01:32:01.875Z,72.04
2022-09-05T01:33:05.928Z,72.34
2022-09-05T01:34:01.856Z,71.03
2022-09-05T01:35:01.828Z,70.62
2022-09-05T01:36:04.002Z,71.13
2022-09-05T01:37:01.814Z,72.14
2022-09-05T01:38:01.825Z,72.54
2022-09-05T01:40:12.458Z,71.33
2022-09-05T01:40:20.964Z,70.83
2022-09-05T01:41:17.728Z,71.33
2022-09-05T01:42:01.761Z,72.04
2022-09-05T01:43:01.755Z,71.94
2022-09-05T01:44:01.739Z,71.23
2022-09-05T01:45:01.703Z,73.05
2022-09-05T01:46:01.734Z,72.94
2022-09-05T01:47:01.710Z,72.24
2022-09-05T01:48:01.702Z,71.73
2022-09-05T01:49:01.662Z,71.94
2022-09-05T01:50:01.666Z,72.44
2022-09-05T01:51:01.647Z,71.64
2022-09-05T01:52:01.639Z,71.73
2022-09-05T01:53:02.348Z,71.33
2022-09-05T01:54:01.628Z,71.13
2022-09-05T01:55:01.607Z,71.53
2022-09-05T01:56:04.388Z,72.04
2022-09-05T01:57:01.593Z,70.83
2022-09-05T01:58:01.625Z,70.93
2022-09-05T01:59:01.570Z,71.23
2022-09-05T02:00:01.635Z,71.84
2022-09-05T02:01:27.010Z,71.23
2022-09-05T02:02:01.685Z,71.94
2022-09-05T02:03:01.616Z,72.44
2022-09-05T02:04:04.555Z,72.74
2022-09-05T02:05:01.509Z,72.54
2022-09-05T02:06:01.623Z,71.73
2022-09-05T02:07:29.796Z,71.44
2022-09-05T02:08:01.688Z,71.64
2022-09-05T02:09:01.447Z,70.62
2022-09-05T02:10:07.042Z,70.42
2022-09-05T02:11:01.442Z,71.13
2022-09-05T02:12:01.423Z,71.03
2022-09-05T02:13:02.975Z,71.03
2022-09-05T02:14:01.399Z,70.62
2022-09-05T02:15:01.405Z,71.33
2022-09-05T02:16:01.488Z,71.44
2022-09-05T02:17:01.368Z,72.04
2022-09-05T02:18:01.374Z,71.03
2022-09-05T02:19:01.499Z,71.13
2022-09-05T02:20:01.338Z,71.84
2022-09-05T02:21:01.332Z,72.44
2022-09-05T02:22:01.337Z,72.14
2022-09-05T02:23:01.320Z,72.85
2022-09-05T02:24:01.288Z,72.74
2022-09-05T02:25:30.469Z,72.47
2022-09-05T02:26:06.764Z,72.67
2022-09-05T02:27:01.250Z,71.77
2022-09-05T02:28:05.429Z,71.87
2022-09-05T02:29:01.233Z,72.17
2022-09-05T02:30:01.222Z,71.77
2022-09-05T02:31:19.849Z,72.27
2022-09-05T02:32:01.231Z,72.78
2022-09-05T02:33:01.219Z,73.38
2022-09-05T02:34:02.043Z,73.48
2022-09-05T02:35:01.179Z,73.79
2022-09-05T02:36:01.171Z,73.72
2022-09-05T02:37:01.172Z,73.82
2022-09-05T02:38:58.064Z,74.02
2022-09-05T02:45:09.514Z,72.81
2022-09-05T02:45:28.711Z,73.11
2022-09-05T02:45:34.095Z,74.12
2022-09-05T02:46:33.823Z,74.32
2022-09-05T02:47:33.710Z,72.81
2022-09-05T02:48:33.704Z,73.32
2022-09-05T02:51:59.817Z,74.02
2022-09-05T02:58:06.605Z,74.36
2022-09-05T02:58:12.980Z,74.05
2022-09-05T02:59:09.779Z,74.56
2022-09-05T02:59:58.110Z,74.56
2022-09-05T03:00:58.114Z,74.36
2022-09-05T03:01:58.107Z,74.56
2022-09-05T03:02:58.194Z,74.46
2022-09-05T03:03:58.073Z,74.09
2022-09-05T03:05:04.893Z,74.40
2022-09-05T03:05:58.070Z,74.80
2022-09-05T03:06:58.047Z,73.69
2022-09-05T03:07:58.042Z,73.89
2022-09-05T03:08:58.002Z,74.49
2022-09-05T03:09:58.004Z,74.80
2022-09-05T03:10:57.987Z,74.40
2022-09-05T03:11:57.980Z,75.31
2022-09-05T03:12:57.986Z,75.31
2022-09-05T03:13:57.947Z,74.19
2022-09-05T03:14:57.949Z,73.99
2022-09-05T03:16:01.315Z,74.09
2022-09-05T03:16:58.020Z,74.09
2022-09-05T03:17:57.938Z,74.29
2022-09-05T03:18:57.901Z,75.10
2022-09-05T03:19:57.889Z,74.90
2022-09-05T03:21:09.205Z,74.90
2022-09-05T03:21:57.880Z,75.31
2022-09-05T03:22:57.863Z,74.09
2022-09-05T03:23:57.861Z,74.29
2022-09-05T03:24:57.822Z,74.90
2022-09-05T03:25:57.832Z,75.54
2022-09-05T03:26:57.799Z,75.64
2022-09-05T03:27:57.813Z,74.13
2022-09-05T03:28:57.780Z,74.19
2022-09-05T03:29:58.426Z,74.80
2022-09-05T03:30:57.808Z,75.24
2022-09-05T03:31:57.745Z,75.51
2022-09-05T03:32:57.747Z,75.44
2022-09-05T03:33:57.727Z,74.63
2022-09-05T03:34:57.709Z,75.24
2022-09-05T03:35:57.717Z,75.24
2022-09-05T03:36:57.685Z,75.54
2022-09-05T03:37:58.723Z,75.54
2022-09-05T03:38:57.655Z,75.95
2022-09-05T03:39:57.729Z,74.93
2022-09-05T03:40:57.655Z,75.04
2022-09-05T03:41:57.645Z,75.04
2022-09-05T03:42:57.630Z,75.24
2022-09-05T03:43:57.604Z,75.84
2022-09-05T03:44:57.593Z,76.35
2022-09-05T03:45:57.630Z,76.45
2022-09-05T03:46:57.565Z,76.08
2022-09-05T03:48:01.992Z,75.98
2022-09-05T03:48:58.049Z,76.28
2022-09-05T03:54:02.899Z,74.97
2022-09-05T03:57:32.250Z,75.37
2022-09-05T03:57:42.971Z,76.69
2022-09-05T03:58:41.928Z,76.79
2022-09-05T03:59:24.342Z,76.79
2022-09-05T04:00:24.329Z,76.99
2022-09-05T04:02:40.338Z,76.82
2022-09-05T04:08:15.120Z,76.22
2022-09-05T04:08:42.816Z,77.64
2022-09-05T04:08:48.382Z,76.72
2022-09-05T04:09:51.723Z,77.13
2022-09-05T04:10:47.388Z,76.93
2022-09-05T04:11:47.213Z,77.33
2022-09-05T04:12:47.211Z,77.43
2022-09-05T04:13:47.195Z,77.23
2022-09-05T04:14:47.194Z,76.62
2022-09-05T04:15:47.169Z,76.72
2022-09-05T04:16:47.189Z,76.93
2022-09-05T04:17:47.143Z,76.72
2022-09-05T04:18:47.138Z,77.03
2022-09-05T04:19:49.817Z,77.33
2022-09-05T04:20:47.119Z,77.33
2022-09-05T04:21:47.120Z,77.73
2022-09-05T04:22:47.086Z,76.93
2022-09-05T04:23:47.072Z,76.32
2022-09-05T04:24:47.080Z,76.52
2022-09-05T04:25:47.064Z,77.13
2022-09-05T04:26:47.039Z,76.93
2022-09-05T04:27:47.035Z,76.42
2022-09-05T04:28:53.830Z,76.02
2022-09-05T04:29:47.026Z,76.52
2022-09-05T04:30:47.016Z,76.93
2022-09-05T04:31:48.488Z,75.71
2022-09-05T04:32:47.006Z,75.92
2022-09-05T04:33:46.973Z,76.12
2022-09-05T04:34:46.983Z,76.62
2022-09-05T04:35:46.957Z,76.52
2022-09-05T04:36:46.944Z,76.82
2022-09-05T04:37:47.847Z,76.82
2022-09-05T04:38:46.912Z,76.62
2022-09-05T04:39:47.006Z,76.62
2022-09-05T04:40:46.887Z,76.82
2022-09-05T04:41:46.873Z,76.72
2022-09-05T04:42:46.871Z,76.82
2022-09-05T04:43:46.877Z,77.03
2022-09-05T04:44:46.858Z,76.22
2022-09-05T04:45:53.508Z,76.42
2022-09-05T04:46:48.249Z,76.62
2022-09-05T04:47:46.806Z,76.93
2022-09-05T04:48:46.789Z,76.93
2022-09-05T04:49:46.797Z,76.62
2022-09-05T04:50:46.774Z,77.03
2022-09-05T04:51:46.756Z,76.82
2022-09-05T04:52:46.759Z,76.93
2022-09-05T04:53:46.742Z,77.23
2022-09-05T04:54:46.745Z,77.43
2022-09-05T04:55:50.624Z,77.23
2022-09-05T04:56:46.705Z,77.23
2022-09-05T04:57:46.698Z,77.43
2022-09-05T04:59:56.680Z,77.33
2022-09-05T05:06:38.254Z,77.19
2022-09-05T05:07:13.501Z,76.89
2022-09-05T05:08:13.539Z,75.68
2022-09-05T05:09:13.419Z,75.88
2022-09-05T05:10:13.402Z,75.98
2022-09-05T05:17:56.598Z,75.17
2022-09-05T05:18:37.719Z,75.04
2022-09-05T05:19:03.083Z,75.24
2022-09-05T05:19:31.637Z,75.10
2022-09-05T05:20:43.056Z,74.49
2022-09-05T05:21:31.550Z,75.10
2022-09-05T05:22:31.550Z,75.40
2022-09-05T05:23:31.523Z,76.21
2022-09-05T05:24:31.510Z,74.60
2022-09-05T05:25:31.491Z,74.19
2022-09-05T05:26:31.489Z,74.46
2022-09-05T05:27:31.475Z,74.96
2022-09-05T05:28:31.471Z,74.46
2022-09-05T05:29:31.448Z,74.76
2022-09-05T05:30:31.429Z,74.87
2022-09-05T05:31:31.437Z,75.16
2022-09-05T05:32:45.792Z,75.16
2022-09-05T05:33:31.425Z,74.56
2022-09-05T05:34:31.395Z,74.52
2022-09-05T05:35:31.382Z,74.22
2022-09-05T05:36:31.367Z,74.02
2022-09-05T05:37:31.363Z,74.32
2022-09-05T05:38:31.354Z,73.82
2022-09-05T05:39:31.393Z,72.81
2022-09-05T05:40:31.691Z,72.41
2022-09-05T05:41:31.313Z,73.01
2022-09-05T05:42:31.298Z,73.32
2022-09-05T05:43:31.307Z,73.22
2022-09-05T05:44:31.277Z,74.02
2022-09-05T05:45:31.268Z,73.82
2022-09-05T05:46:31.383Z,74.63
2022-09-05T05:47:32.129Z,74.12
2022-09-05T05:48:31.238Z,74.12
2022-09-05T05:49:31.223Z,73.92
2022-09-05T05:50:31.210Z,74.39
2022-09-05T05:51:34.497Z,74.49
2022-09-05T05:52:31.196Z,75.30
2022-09-05T05:53:42.905Z,74.49
2022-09-05T05:54:31.162Z,74.39
2022-09-05T05:55:51.652Z,74.39
2022-09-05T05:56:31.148Z,73.38
2022-09-05T05:57:31.133Z,73.38
2022-09-05T05:58:32.914Z,73.18
2022-09-05T05:59:31.113Z,74.19
2022-09-05T06:00:31.102Z,74.08
2022-09-05T06:01:37.907Z,73.28
2022-09-05T06:02:31.211Z,72.98
2022-09-05T06:03:31.222Z,73.48
2022-09-05T06:04:31.057Z,73.35
2022-09-05T06:05:31.059Z,72.04
2022-09-05T06:06:31.039Z,72.04
2022-09-05T06:07:33.377Z,72.14
2022-09-05T06:12:03.217Z,71.73
2022-09-05T06:15:12.106Z,71.53
2022-09-05T06:15:22.381Z,71.70
2022-09-05T06:16:17.086Z,71.10
2022-09-05T06:17:17.039Z,71.91
2022-09-05T06:18:17.030Z,71.67
2022-09-05T06:19:17.033Z,71.06
2022-09-05T06:22:05.370Z,70.76
2022-09-05T06:22:14.943Z,70.26
2022-09-05T06:22:21.506Z,69.96
2022-09-05T06:23:39.107Z,70.06
2022-09-05T06:24:21.302Z,69.96
2022-09-05T06:25:20.638Z,70.16
2022-09-05T06:26:20.628Z,71.13
2022-09-05T06:27:20.618Z,69.25
2022-09-05T06:28:20.610Z,69.92
2022-09-05T06:29:20.591Z,70.73
2022-09-05T06:30:20.613Z,70.73
2022-09-05T06:31:29.500Z,70.43
2022-09-05T06:32:20.631Z,70.63
2022-09-05T06:33:20.620Z,70.32
2022-09-05T06:34:33.484Z,69.62
2022-09-05T06:35:20.533Z,70.23
2022-09-05T06:36:20.543Z,70.12
2022-09-05T06:37:20.499Z,70.93
2022-09-05T06:38:20.490Z,70.53
2022-09-05T06:39:20.487Z,70.83
2022-09-05T06:40:21.033Z,70.83
2022-09-05T06:41:20.465Z,71.53
2022-09-05T06:42:42.673Z,72.03
2022-09-05T06:43:20.488Z,71.33
2022-09-05T06:44:20.431Z,71.03
2022-09-05T06:45:28.206Z,71.13
2022-09-05T06:46:50.602Z,71.06
2022-09-05T06:47:23.772Z,72.07
2022-09-05T06:48:41.206Z,71.16
2022-09-05T06:49:28.889Z,72.17
2022-09-05T06:50:23.985Z,72.17
2022-09-05T06:51:20.349Z,71.26
2022-09-05T06:52:29.729Z,71.16
2022-09-05T06:53:21.055Z,71.06
2022-09-05T06:54:20.349Z,71.06
2022-09-05T06:55:20.307Z,71.36
2022-09-05T06:56:25.834Z,71.56
2022-09-05T06:57:20.290Z,70.96
2022-09-05T06:58:20.273Z,70.86
2022-09-05T06:59:20.259Z,70.96
2022-09-05T07:00:22.229Z,71.06
2022-09-05T07:01:20.330Z,71.77
2022-09-05T07:02:25.717Z,72.17
2022-09-05T07:03:20.348Z,72.27
2022-09-05T07:05:14.651Z,72.47
2022-09-05T07:05:44.774Z,71.16
2022-09-05T07:06:20.518Z,72.17
2022-09-05T07:07:20.168Z,71.87
2022-09-05T07:08:34.827Z,72.27
2022-09-05T07:09:20.153Z,72.07
2022-09-05T07:10:37.966Z,71.83
2022-09-05T07:11:20.154Z,71.94
2022-09-05T07:12:20.125Z,71.53
2022-09-05T07:13:20.164Z,71.63
2022-09-05T07:14:20.106Z,71.94
2022-09-05T07:15:20.624Z,71.13
2022-09-05T07:16:37.369Z,71.53
2022-09-05T07:17:20.087Z,71.53
2022-09-05T07:18:20.056Z,71.23
2022-09-05T07:19:20.053Z,71.03
2022-09-05T07:20:22.026Z,71.20
2022-09-05T07:21:26.249Z,70.59
2022-09-05T07:22:46.092Z,71.70
2022-09-05T07:23:57.790Z,71.20
2022-09-05T07:24:29.749Z,71.09
2022-09-05T07:25:19.982Z,70.39
2022-09-05T07:26:51.983Z,69.99
2022-09-05T07:27:19.957Z,70.76
2022-09-05T07:28:28.792Z,69.56
2022-09-05T07:29:19.958Z,70.06
2022-09-05T07:30:19.919Z,69.76
2022-09-05T07:31:27.463Z,69.52
2022-09-05T07:32:24.258Z,69.52
2022-09-05T07:33:19.969Z,70.03
2022-09-05T07:34:21.140Z,70.03
2022-09-05T07:35:19.879Z,69.69
2022-09-05T07:36:19.855Z,68.68
2022-09-05T07:37:19.843Z,68.68
2022-09-05T07:38:19.842Z,68.38
2022-09-05T07:39:28.799Z,68.88
2022-09-05T07:40:25.291Z,69.35
2022-09-05T07:41:19.823Z,68.85
2022-09-05T07:42:19.787Z,68.15
2022-09-05T07:43:19.770Z,68.22
2022-09-05T07:44:22.075Z,68.22
2022-09-05T07:45:19.761Z,67.92
2022-09-05T07:46:19.769Z,69.22
2022-09-05T07:47:19.747Z,69.29
2022-09-05T07:48:19.722Z,69.09
2022-09-05T07:49:19.707Z,68.89
2022-09-05T07:52:21.105Z,67.79
2022-09-05T07:57:50.662Z,67.15
2022-09-05T07:58:11.571Z,66.85
2022-09-05T07:59:11.560Z,67.15
2022-09-05T08:00:23.134Z,67.25
2022-09-05T08:01:11.606Z,67.35
2022-09-05T08:02:11.550Z,66.55
2022-09-05T08:03:11.516Z,67.85
2022-09-05T08:04:11.502Z,68.26
2022-09-05T08:05:11.509Z,67.05
2022-09-05T08:06:11.483Z,66.85
2022-09-05T08:07:45.965Z,67.65
2022-09-05T08:08:11.564Z,67.76
2022-09-05T08:10:00.927Z,67.76
2022-09-05T08:10:15.560Z,67.55
2022-09-05T08:11:23.566Z,67.02
2022-09-05T08:12:11.423Z,67.62
2022-09-05T08:13:24.745Z,67.42
2022-09-05T08:14:43.504Z,67.22
2022-09-05T08:15:14.127Z,67.22
2022-09-05T08:16:15.239Z,66.99
2022-09-05T08:17:11.358Z,67.09
2022-09-05T08:18:11.339Z,66.69
2022-09-05T08:19:11.361Z,67.29
2022-09-05T08:20:11.322Z,67.69
2022-09-05T08:21:11.314Z,67.49
2022-09-05T08:22:11.291Z,66.69
2022-09-05T08:23:11.287Z,66.49
2022-09-05T08:24:13.279Z,66.69
2022-09-05T08:25:11.286Z,67.09
2022-09-05T08:26:11.253Z,66.49
2022-09-05T08:27:16.015Z,65.99
2022-09-05T08:28:11.247Z,65.99
2022-09-05T08:29:11.256Z,66.19
2022-09-05T08:30:26.920Z,66.59
2022-09-05T08:31:11.276Z,67.69
2022-09-05T08:32:11.183Z,67.59
2022-09-05T08:33:11.887Z,67.29
2022-09-05T08:34:11.169Z,66.78
2022-09-05T08:35:11.156Z,66.19
2022-09-05T08:36:11.160Z,66.28
2022-09-05T08:37:11.132Z,66.55
2022-09-05T08:38:11.126Z,66.25
2022-09-05T08:39:11.124Z,65.16
2022-09-05T08:40:12.200Z,65.36
2022-09-05T08:41:11.114Z,65.52
2022-09-05T08:42:11.085Z,65.42
2022-09-05T08:46:02.049Z,64.92
2022-09-05T08:46:49.877Z,65.42
2022-09-05T08:46:55.419Z,64.69
2022-09-05T08:47:53.204Z,65.39
2022-09-05T08:48:53.120Z,64.69
2022-09-05T08:49:53.098Z,66.09
2022-09-05T08:50:53.097Z,65.59
2022-09-05T08:51:55.259Z,65.09
2022-09-05T08:52:53.082Z,64.79
2022-09-05T08:53:53.525Z,65.59
2022-09-05T08:55:02.802Z,66.09
2022-09-05T08:55:53.038Z,65.42
2022-09-05T08:56:53.028Z,65.42
2022-09-05T08:57:53.065Z,65.52
2022-09-05T08:59:27.191Z,66.13
2022-09-05T09:00:19.897Z,66.02
2022-09-05T09:00:55.055Z,65.83
2022-09-05T09:02:00.700Z,66.42
2022-09-05T09:02:52.968Z,66.13
2022-09-05T09:03:53.010Z,65.72
2022-09-05T09:05:02.097Z,66.22
2022-09-05T09:06:14.044Z,66.32
2022-09-05T09:06:57.957Z,66.22
2022-09-05T09:07:52.917Z,67.72
2022-09-05T09:08:52.894Z,66.02
2022-09-05T09:09:52.915Z,66.42
2022-09-05T09:10:52.862Z,66.22
2022-09-05T09:11:52.868Z,67.52
2022-09-05T09:12:52.849Z,65.83
2022-09-05T09:13:52.835Z,67.02
2022-09-05T09:14:52.835Z,66.42
2022-09-05T09:15:52.881Z,66.63
2022-09-05T09:16:52.812Z,66.93
2022-09-05T09:17:52.787Z,67.32
2022-09-05T09:18:52.781Z,67.52
2022-09-05T09:19:52.772Z,69.23
2022-09-05T09:20:52.775Z,69.43
2022-09-05T09:21:52.762Z,67.82
2022-09-05T09:22:52.744Z,67.82
2022-09-05T09:23:52.738Z,69.02
2022-09-05T09:25:14.756Z,67.05
2022-09-05T09:25:52.712Z,67.36
2022-09-05T09:26:52.698Z,67.76
2022-09-05T09:28:46.524Z,67.76
2022-09-05T09:28:53.712Z,67.55
2022-09-05T09:29:52.663Z,67.05
2022-09-05T09:30:52.653Z,67.66
2022-09-05T09:31:52.725Z,68.16
2022-09-05T09:32:55.284Z,69.16
2022-09-05T09:33:52.638Z,68.16
2022-09-05T09:34:52.744Z,67.96
2022-09-05T09:35:52.591Z,69.26
2022-09-05T09:36:52.584Z,68.05
2022-09-05T09:37:55.308Z,68.55
2022-09-05T09:38:52.572Z,68.36
2022-09-05T09:39:52.639Z,67.86
2022-09-05T09:41:02.806Z,68.55
2022-09-05T09:41:52.534Z,70.46
2022-09-05T09:42:52.523Z,69.16
2022-09-05T09:43:52.772Z,69.39
2022-09-05T09:44:52.498Z,69.59
2022-09-05T09:45:52.503Z,71.80
2022-09-05T09:46:52.539Z,70.29
2022-09-05T09:47:52.459Z,70.09
2022-09-05T09:48:52.453Z,69.89
2022-09-05T09:49:52.447Z,69.19
2022-09-05T09:50:58.713Z,70.59
2022-09-05T09:51:52.425Z,71.19
2022-09-05T09:52:52.411Z,71.00
2022-09-05T09:53:52.390Z,70.89
2022-09-05T09:54:52.396Z,71.19
2022-09-05T09:55:52.395Z,72.19
2022-09-05T09:56:52.384Z,71.69
2022-09-05T09:57:53.033Z,70.69
2022-09-05T09:58:52.353Z,70.79
2022-09-05T09:59:54.735Z,71.09
2022-09-05T10:00:52.343Z,69.59
2022-09-05T10:01:52.339Z,69.79
2022-09-05T10:04:12.500Z,69.96
2022-09-05T10:11:25.882Z,70.26
2022-09-05T10:11:55.015Z,68.93
2022-09-05T10:12:01.697Z,69.12
2022-09-05T10:13:08.903Z,68.93
2022-09-05T10:13:55.201Z,69.23
2022-09-05T10:14:55.197Z,70.09
2022-09-05T10:15:55.242Z,69.59
2022-09-05T10:16:55.187Z,68.49
2022-09-05T10:17:55.272Z,68.79
2022-09-05T10:18:55.148Z,68.86
2022-09-05T10:20:11.764Z,68.46
2022-09-05T10:21:15.512Z,68.56
2022-09-05T10:22:55.117Z,67.66
2022-09-05T10:23:55.089Z,67.63
2022-09-05T10:24:55.083Z,67.63
2022-09-05T10:25:58.242Z,66.93
2022-09-05T10:26:56.467Z,66.50
2022-09-05T10:27:55.722Z,66.60
2022-09-05T10:28:55.036Z,66.00
2022-09-05T10:29:55.029Z,66.36
2022-09-05T10:32:31.267Z,65.87
2022-09-05T10:35:22.319Z,66.27
2022-09-05T10:35:28.457Z,64.64
2022-09-05T10:36:26.352Z,65.14
2022-09-05T10:37:26.319Z,65.23
2022-09-05T10:38:26.309Z,66.03
2022-09-05T10:39:26.403Z,64.51
2022-09-05T10:40:26.291Z,65.11
2022-09-05T10:41:26.267Z,64.71
2022-09-05T10:42:26.252Z,64.90
2022-09-05T10:43:26.389Z,65.08
2022-09-05T10:44:26.231Z,64.37
2022-09-05T10:45:33.459Z,63.88
2022-09-05T10:47:36.800Z,63.35
2022-09-05T10:48:37.805Z,63.25
2022-09-05T10:49:37.787Z,63.15
2022-09-05T10:50:37.785Z,63.25
2022-09-05T10:51:37.989Z,63.92
2022-09-05T10:52:37.747Z,63.22
2022-09-05T10:53:39.746Z,63.02
2022-09-05T10:54:37.722Z,62.79
2022-09-05T10:55:37.721Z,62.40
2022-09-05T10:56:37.709Z,62.49
2022-09-05T10:57:37.695Z,62.29
2022-09-05T11:02:15.893Z,62.46
2022-09-05T11:02:41.038Z,61.77
2022-09-05T11:02:53.948Z,60.12
2022-09-05T11:03:45.107Z,59.12
2022-09-05T11:04:46.712Z,59.19
2022-09-05T11:05:45.059Z,58.80
2022-09-05T11:06:44.994Z,57.78
2022-09-05T11:07:44.982Z,59.07
2022-09-05T11:08:44.973Z,57.87
2022-09-05T11:09:44.975Z,57.68
2022-09-05T11:10:44.949Z,57.41
2022-09-05T11:11:44.941Z,57.58
2022-09-05T11:12:44.939Z,57.38
2022-09-05T11:13:44.926Z,56.78
2022-09-05T11:14:44.924Z,57.45
2022-09-05T11:15:47.852Z,57.65
2022-09-05T11:16:44.922Z,56.83
2022-09-05T11:17:44.873Z,57.03
2022-09-05T11:18:56.029Z,56.83
2022-09-05T11:19:44.878Z,56.30
2022-09-05T11:20:44.836Z,56.51
2022-09-05T11:21:44.838Z,56.01
2022-09-05T11:22:44.824Z,55.49
2022-09-05T11:23:56.851Z,55.11
2022-09-05T11:24:44.829Z,54.92
2022-09-05T11:25:44.788Z,55.54
2022-09-05T11:26:44.897Z,55.74
2022-09-05T11:27:44.775Z,55.44
2022-09-05T11:28:58.145Z,55.54
2022-09-05T11:29:44.775Z,56.04
2022-09-05T11:30:44.799Z,56.73
2022-09-05T11:32:56.561Z,55.94
2022-09-05T11:40:31.616Z,55.94
2022-09-05T11:41:01.016Z,56.21
2022-09-05T11:41:14.026Z,55.29
2022-09-05T11:41:56.908Z,54.79
2022-09-05T11:42:56.832Z,54.92
2022-09-05T11:44:00.994Z,55.11
2022-09-05T11:44:56.848Z,55.61
2022-09-05T11:45:56.845Z,56.11
2022-09-05T11:46:56.793Z,55.94
2022-09-05T11:47:56.783Z,55.91
2022-09-05T11:48:56.774Z,56.04
2022-09-05T11:49:56.762Z,56.04
2022-09-05T11:50:56.767Z,56.13
2022-09-05T11:51:56.758Z,56.93
2022-09-05T11:52:56.734Z,56.73
2022-09-05T11:53:57.422Z,55.83
2022-09-05T11:54:56.717Z,56.43
2022-09-05T11:55:56.731Z,57.13
2022-09-05T11:57:11.380Z,56.40
2022-09-05T11:57:57.020Z,56.80
2022-09-05T11:58:56.669Z,57.40
2022-09-05T12:00:30.611Z,56.90
2022-09-05T12:01:41.726Z,55.94
2022-09-05T12:01:56.637Z,56.73
2022-09-05T12:02:56.671Z,56.34
2022-09-05T12:03:59.730Z,55.91
2022-09-05T12:05:50.667Z,56.40
2022-09-05T12:06:03.734Z,55.41
2022-09-05T12:06:56.582Z,55.74
2022-09-05T12:07:56.568Z,55.54
2022-09-05T12:08:56.573Z,56.06
2022-09-05T12:09:56.545Z,56.06
2022-09-05T12:10:56.553Z,56.66
2022-09-05T12:11:56.522Z,56.26
2022-09-05T12:12:56.521Z,56.66
2022-09-05T12:13:56.498Z,56.95
2022-09-05T12:14:56.498Z,55.87
2022-09-05T12:16:07.804Z,56.38
2022-09-05T12:16:56.479Z,57.28
2022-09-05T12:17:56.459Z,57.41
2022-09-05T12:18:56.462Z,57.21
2022-09-05T12:19:56.458Z,58.07
2022-09-05T12:20:56.449Z,56.88
2022-09-05T12:21:56.422Z,57.68
2022-09-05T12:22:56.399Z,57.98
2022-09-05T12:24:36.716Z,57.65
2022-09-05T12:27:39.699Z,57.85
2022-09-05T12:27:55.839Z,58.02
2022-09-05T12:29:38.554Z,55.54
2022-09-05T12:29:50.018Z,55.64
2022-09-05T12:31:07.155Z,55.04
2022-09-05T12:36:05.731Z,56.16
2022-09-05T12:40:44.527Z,55.57
2022-09-05T12:42:14.805Z,55.76
2022-09-05T12:42:34.256Z,54.89
2022-09-05T12:43:39.358Z,55.58
2022-09-05T12:44:46.505Z,55.96
2022-09-05T12:44:55.355Z,55.66
2022-09-05T12:46:53.426Z,53.55
2022-09-05T12:47:54.420Z,52.76
2022-09-05T12:48:54.411Z,52.86
2022-09-05T12:49:54.412Z,53.16
2022-09-05T12:50:54.396Z,53.65
2022-09-05T12:51:54.441Z,53.45
2022-09-05T12:52:54.379Z,52.73
2022-09-05T12:53:54.389Z,52.24
2022-09-05T12:54:56.852Z,52.46
2022-09-05T12:56:33.631Z,52.96
2022-09-05T13:03:07.767Z,53.16
2022-09-05T13:03:28.170Z,53.35
2022-09-05T13:03:34.612Z,53.85
2022-09-05T13:04:32.622Z,53.25
2022-09-05T13:05:30.554Z,53.25
2022-09-05T13:06:30.572Z,52.83
2022-09-05T13:07:30.432Z,52.54
2022-09-05T13:08:30.420Z,52.44
2022-09-05T13:10:14.265Z,52.54
2022-09-05T13:14:49.162Z,52.14
2022-09-05T13:15:22.391Z,51.54
2022-09-05T13:15:28.655Z,52.04
2022-09-05T13:16:22.886Z,51.94
2022-09-05T13:17:13.927Z,51.54
2022-09-05T13:18:13.871Z,52.44
2022-09-05T13:19:13.850Z,51.65
2022-09-05T13:20:13.846Z,51.13
2022-09-05T13:21:13.850Z,51.03
2022-09-05T13:22:13.852Z,50.90
2022-09-05T13:23:13.821Z,50.59
2022-09-05T13:24:14.795Z,50.19
2022-09-05T13:25:13.792Z,50.48
2022-09-05T13:26:13.785Z,49.99
2022-09-05T13:27:13.860Z,50.21
2022-09-05T13:28:13.789Z,50.90
2022-09-05T13:29:13.748Z,50.71
2022-09-05T13:30:54.842Z,50.53
2022-09-05T13:38:37.667Z,51.32
2022-09-05T13:38:52.776Z,53.70
2022-09-05T13:39:23.596Z,53.31
2022-09-05T13:40:23.620Z,53.18
2022-09-05T13:41:27.297Z,53.18
2022-09-05T13:42:23.434Z,52.49
2022-09-05T13:43:23.456Z,52.26
2022-09-05T13:44:26.855Z,51.77
2022-09-05T13:45:23.380Z,51.97
2022-09-05T13:46:23.419Z,51.94
2022-09-05T13:47:29.621Z,51.94
2022-09-05T13:48:23.486Z,50.51
2022-09-05T13:49:25.933Z,49.49
2022-09-05T13:50:23.343Z,49.48
2022-09-05T13:51:23.325Z,48.16
2022-09-05T13:52:23.315Z,47.94
2022-09-05T13:53:23.307Z,47.63
2022-09-05T13:54:23.309Z,47.01
2022-09-05T13:55:23.290Z,46.67
2022-09-05T13:56:23.273Z,45.86
2022-09-05T13:57:31.589Z,45.67
2022-09-05T13:58:23.298Z,45.52
2022-09-05T13:59:23.284Z,44.22
2022-09-05T14:00:27.678Z,43.73
2022-09-05T14:01:23.249Z,43.80
2022-09-05T14:02:26.502Z,44.93
2022-09-05T14:03:40.184Z,45.07
2022-09-05T14:05:23.249Z,46.52
2022-09-05T14:06:45.270Z,47.09
2022-09-05T14:08:23.154Z,45.84
2022-09-05T14:09:39.349Z,44.44
2022-09-05T14:10:23.165Z,44.66
2022-09-05T14:11:23.123Z,45.49
2022-09-05T14:12:23.112Z,45.56
2022-09-05T14:13:23.155Z,45.56
2022-09-05T14:15:24.962Z,46.32
2022-09-05T14:16:23.124Z,47.23
2022-09-05T14:18:23.147Z,48.58
2022-09-05T14:19:23.063Z,49.30
2022-09-05T14:20:23.019Z,49.60
2022-09-05T14:21:23.006Z,50.31
2022-09-05T14:22:22.999Z,49.72
2022-09-05T14:23:24.288Z,51.32
2022-09-05T14:24:27.781Z,50.56
2022-09-05T14:25:22.970Z,51.05
2022-09-05T14:26:22.971Z,51.05
2022-09-05T14:27:25.906Z,50.98
2022-09-05T14:28:22.944Z,51.18
2022-09-05T14:29:22.951Z,51.87
2022-09-05T14:31:37.147Z,52.36